Haypoint, Minnesota
Current Conditions -  °F | °C
As of 8:15 AM on Wednesday 26 Nov 2014 (Local Time) from KGPZ Reporting Station
Overcast Overcast  
Wind Chill: -18°   Ceiling: 3400
Heat Index: -10°   Visibility: 10mi
Dew Point: -13°   Wind: 13mph
Humidity: 79%   Direction: 350°N
Pressure: 30.17"   Gusts: NA
Location:  47.0392°N, 93.6273°W
Report Text: KGPZ 261415Z AUTO 35011KT 10SM OVC034 M10/M13 A3017 RMK AO1
Loading
Personal Weather Stations






























Interactive Weather Map New forecast layout! Learn more

10-Day Weather Forecast

Advertisements
Track Severe Weather on mobile